sensor_id;sensor_type;location;lat;lon;timestamp;P1;durP1;ratioP1;P2;durP2;ratioP2
41693;SDS011;27377;50.666;9.150;2023-05-07T00:01:46;4.85;;;2.60;;
41693;SDS011;27377;50.666;9.150;2023-05-07T00:04:11;5.30;;;2.83;;
41693;SDS011;27377;50.666;9.150;2023-05-07T00:06:38;5.60;;;2.67;;
41693;SDS011;27377;50.666;9.150;2023-05-07T00:09:07;4.30;;;2.50;;
41693;SDS011;27377;50.666;9.150;2023-05-07T00:11:33;4.57;;;2.60;;
41693;SDS011;27377;50.666;9.150;2023-05-07T00:13:59;6.45;;;2.70;;
41693;SDS011;27377;50.666;9.150;2023-05-07T00:16:25;4.47;;;2.40;;
41693;SDS011;27377;50.666;9.150;2023-05-07T00:18:51;5.57;;;2.40;;
41693;SDS011;27377;50.666;9.150;2023-05-07T00:21:19;6.38;;;2.70;;
41693;SDS011;27377;50.666;9.150;2023-05-07T00:23:46;4.50;;;2.60;;
41693;SDS011;27377;50.666;9.150;2023-05-07T00:26:14;5.93;;;2.80;;
41693;SDS011;27377;50.666;9.150;2023-05-07T00:28:40;4.70;;;3.17;;
41693;SDS011;27377;50.666;9.150;2023-05-07T00:31:06;4.63;;;3.17;;
41693;SDS011;27377;50.666;9.150;2023-05-07T00:33:34;7.30;;;3.40;;
41693;SDS011;27377;50.666;9.150;2023-05-07T00:36:00;5.22;;;3.30;;
41693;SDS011;27377;50.666;9.150;2023-05-07T00:38:26;6.53;;;3.53;;
41693;SDS011;27377;50.666;9.150;2023-05-07T00:40:52;5.70;;;3.30;;
41693;SDS011;27377;50.666;9.150;2023-05-07T00:43:21;6.43;;;3.47;;
41693;SDS011;27377;50.666;9.150;2023-05-07T00:45:46;8.32;;;3.67;;
41693;SDS011;27377;50.666;9.150;2023-05-07T00:48:12;5.38;;;3.67;;
41693;SDS011;27377;50.666;9.150;2023-05-07T00:50:38;6.07;;;3.75;;
41693;SDS011;27377;50.666;9.150;2023-05-07T00:53:04;6.87;;;4.00;;
41693;SDS011;27377;50.666;9.150;2023-05-07T00:55:29;6.13;;;3.73;;
41693;SDS011;27377;50.666;9.150;2023-05-07T00:57:55;7.33;;;4.10;;
41693;SDS011;27377;50.666;9.150;2023-05-07T01:00:21;6.90;;;4.10;;
41693;SDS011;27377;50.666;9.150;2023-05-07T01:02:46;6.60;;;3.90;;
41693;SDS011;27377;50.666;9.150;2023-05-07T01:05:12;6.45;;;4.03;;
41693;SDS011;27377;50.666;9.150;2023-05-07T01:07:41;4.67;;;3.70;;
41693;SDS011;27377;50.666;9.150;2023-05-07T01:10:07;6.38;;;4.07;;
41693;SDS011;27377;50.666;9.150;2023-05-07T01:12:34;5.43;;;3.33;;
41693;SDS011;27377;50.666;9.150;2023-05-07T01:15:02;5.65;;;3.38;;
41693;SDS011;27377;50.666;9.150;2023-05-07T01:17:29;4.60;;;3.30;;
41693;SDS011;27377;50.666;9.150;2023-05-07T01:19:57;4.35;;;3.17;;
41693;SDS011;27377;50.666;9.150;2023-05-07T01:22:30;5.03;;;3.43;;
41693;SDS011;27377;50.666;9.150;2023-05-07T01:25:06;6.93;;;3.53;;
41693;SDS011;27377;50.666;9.150;2023-05-07T01:27:33;8.75;;;4.57;;
41693;SDS011;27377;50.666;9.150;2023-05-07T01:30:00;6.20;;;4.20;;
41693;SDS011;27377;50.666;9.150;2023-05-07T01:32:32;6.38;;;4.30;;
41693;SDS011;27377;50.666;9.150;2023-05-07T01:35:02;7.20;;;4.25;;
41693;SDS011;27377;50.666;9.150;2023-05-07T01:37:30;5.50;;;4.03;;
41693;SDS011;27377;50.666;9.150;2023-05-07T01:39:55;5.57;;;3.60;;
41693;SDS011;27377;50.666;9.150;2023-05-07T01:42:21;7.38;;;4.03;;
41693;SDS011;27377;50.666;9.150;2023-05-07T01:44:47;7.43;;;4.00;;
41693;SDS011;27377;50.666;9.150;2023-05-07T01:47:13;7.20;;;4.00;;
41693;SDS011;27377;50.666;9.150;2023-05-07T01:49:39;6.13;;;4.43;;
41693;SDS011;27377;50.666;9.150;2023-05-07T01:52:06;7.68;;;4.45;;
41693;SDS011;27377;50.666;9.150;2023-05-07T01:54:32;7.95;;;4.80;;
41693;SDS011;27377;50.666;9.150;2023-05-07T01:56:58;5.85;;;4.22;;
41693;SDS011;27377;50.666;9.150;2023-05-07T01:59:23;8.18;;;4.70;;
41693;SDS011;27377;50.666;9.150;2023-05-07T02:01:49;7.28;;;4.60;;
41693;SDS011;27377;50.666;9.150;2023-05-07T02:04:14;8.60;;;4.78;;
41693;SDS011;27377;50.666;9.150;2023-05-07T02:06:40;6.40;;;4.60;;
41693;SDS011;27377;50.666;9.150;2023-05-07T02:09:05;8.25;;;5.15;;
41693;SDS011;27377;50.666;9.150;2023-05-07T02:11:31;6.25;;;4.80;;
41693;SDS011;27377;50.666;9.150;2023-05-07T02:13:57;6.70;;;4.78;;
41693;SDS011;27377;50.666;9.150;2023-05-07T02:16:22;6.95;;;4.57;;
41693;SDS011;27377;50.666;9.150;2023-05-07T02:18:48;7.97;;;5.00;;
41693;SDS011;27377;50.666;9.150;2023-05-07T02:21:14;9.23;;;6.00;;
41693;SDS011;27377;50.666;9.150;2023-05-07T02:23:40;8.02;;;5.53;;
41693;SDS011;27377;50.666;9.150;2023-05-07T02:26:05;8.00;;;5.33;;
41693;SDS011;27377;50.666;9.150;2023-05-07T02:28:31;7.57;;;5.20;;
41693;SDS011;27377;50.666;9.150;2023-05-07T02:30:56;8.70;;;5.93;;
41693;SDS011;27377;50.666;9.150;2023-05-07T02:33:23;10.33;;;6.97;;
41693;SDS011;27377;50.666;9.150;2023-05-07T02:35:49;11.65;;;8.77;;
41693;SDS011;27377;50.666;9.150;2023-05-07T02:38:16;10.48;;;8.30;;
41693;SDS011;27377;50.666;9.150;2023-05-07T02:40:42;10.00;;;7.72;;
41693;SDS011;27377;50.666;9.150;2023-05-07T02:43:09;10.27;;;7.20;;
41693;SDS011;27377;50.666;9.150;2023-05-07T02:45:34;10.88;;;8.63;;
41693;SDS011;27377;50.666;9.150;2023-05-07T02:48:02;12.23;;;8.85;;
41693;SDS011;27377;50.666;9.150;2023-05-07T02:50:28;11.30;;;9.67;;
41693;SDS011;27377;50.666;9.150;2023-05-07T02:52:54;16.08;;;10.65;;
41693;SDS011;27377;50.666;9.150;2023-05-07T02:55:23;13.27;;;10.63;;
41693;SDS011;27377;50.666;9.150;2023-05-07T02:57:48;13.05;;;11.02;;
41693;SDS011;27377;50.666;9.150;2023-05-07T03:00:14;15.45;;;11.65;;
41693;SDS011;27377;50.666;9.150;2023-05-07T03:02:44;13.18;;;11.63;;
41693;SDS011;27377;50.666;9.150;2023-05-07T03:05:10;14.40;;;11.53;;
41693;SDS011;27377;50.666;9.150;2023-05-07T03:07:38;15.52;;;11.52;;
41693;SDS011;27377;50.666;9.150;2023-05-07T03:10:04;15.00;;;11.23;;
41693;SDS011;27377;50.666;9.150;2023-05-07T03:12:30;13.15;;;11.70;;
41693;SDS011;27377;50.666;9.150;2023-05-07T03:14:59;14.93;;;11.97;;
41693;SDS011;27377;50.666;9.150;2023-05-07T03:17:25;16.23;;;11.80;;
41693;SDS011;27377;50.666;9.150;2023-05-07T03:19:50;15.03;;;12.13;;
41693;SDS011;27377;50.666;9.150;2023-05-07T03:22:19;15.13;;;11.80;;
41693;SDS011;27377;50.666;9.150;2023-05-07T03:24:45;15.85;;;11.25;;
41693;SDS011;27377;50.666;9.150;2023-05-07T03:27:11;14.77;;;11.60;;
41693;SDS011;27377;50.666;9.150;2023-05-07T03:29:39;13.95;;;10.77;;
41693;SDS011;27377;50.666;9.150;2023-05-07T03:32:07;14.40;;;10.87;;
41693;SDS011;27377;50.666;9.150;2023-05-07T03:34:33;11.63;;;10.30;;
41693;SDS011;27377;50.666;9.150;2023-05-07T03:36:59;14.40;;;10.63;;
41693;SDS011;27377;50.666;9.150;2023-05-07T03:39:25;13.10;;;10.98;;
41693;SDS011;27377;50.666;9.150;2023-05-07T03:41:53;15.13;;;11.40;;
41693;SDS011;27377;50.666;9.150;2023-05-07T03:44:18;13.75;;;10.95;;
41693;SDS011;27377;50.666;9.150;2023-05-07T03:46:45;13.70;;;11.60;;
41693;SDS011;27377;50.666;9.150;2023-05-07T03:49:10;13.93;;;12.07;;
41693;SDS011;27377;50.666;9.150;2023-05-07T03:51:36;13.85;;;11.90;;
41693;SDS011;27377;50.666;9.150;2023-05-07T03:54:02;14.15;;;11.85;;
41693;SDS011;27377;50.666;9.150;2023-05-07T03:56:27;14.80;;;11.98;;
41693;SDS011;27377;50.666;9.150;2023-05-07T03:58:53;14.23;;;12.73;;
41693;SDS011;27377;50.666;9.150;2023-05-07T04:01:21;14.70;;;12.85;;
41693;SDS011;27377;50.666;9.150;2023-05-07T04:03:47;16.23;;;13.38;;
41693;SDS011;27377;50.666;9.150;2023-05-07T04:06:12;17.83;;;14.10;;
41693;SDS011;27377;50.666;9.150;2023-05-07T04:08:38;17.53;;;14.43;;
41693;SDS011;27377;50.666;9.150;2023-05-07T04:11:03;18.07;;;15.70;;
41693;SDS011;27377;50.666;9.150;2023-05-07T04:13:29;19.33;;;15.60;;
41693;SDS011;27377;50.666;9.150;2023-05-07T04:15:55;17.83;;;15.68;;
41693;SDS011;27377;50.666;9.150;2023-05-07T04:18:21;20.70;;;16.65;;
41693;SDS011;27377;50.666;9.150;2023-05-07T04:20:48;19.35;;;17.23;;
41693;SDS011;27377;50.666;9.150;2023-05-07T04:23:15;18.63;;;15.15;;
41693;SDS011;27377;50.666;9.150;2023-05-07T04:25:40;17.83;;;14.30;;
41693;SDS011;27377;50.666;9.150;2023-05-07T04:28:09;18.77;;;14.90;;
41693;SDS011;27377;50.666;9.150;2023-05-07T04:30:34;17.93;;;14.93;;
41693;SDS011;27377;50.666;9.150;2023-05-07T04:33:00;16.60;;;14.63;;
41693;SDS011;27377;50.666;9.150;2023-05-07T04:35:26;19.87;;;16.40;;
41693;SDS011;27377;50.666;9.150;2023-05-07T04:37:54;22.70;;;16.90;;
41693;SDS011;27377;50.666;9.150;2023-05-07T04:40:20;21.47;;;17.50;;
41693;SDS011;27377;50.666;9.150;2023-05-07T04:42:45;19.07;;;16.50;;
41693;SDS011;27377;50.666;9.150;2023-05-07T04:45:11;21.02;;;17.40;;
41693;SDS011;27377;50.666;9.150;2023-05-07T04:47:37;23.08;;;17.50;;
41693;SDS011;27377;50.666;9.150;2023-05-07T04:50:03;22.98;;;18.60;;
41693;SDS011;27377;50.666;9.150;2023-05-07T04:52:30;23.20;;;18.90;;
41693;SDS011;27377;50.666;9.150;2023-05-07T04:54:59;23.60;;;19.23;;
41693;SDS011;27377;50.666;9.150;2023-05-07T04:57:25;22.30;;;19.90;;
41693;SDS011;27377;50.666;9.150;2023-05-07T04:59:51;24.73;;;19.60;;
41693;SDS011;27377;50.666;9.150;2023-05-07T05:02:18;24.77;;;19.60;;
41693;SDS011;27377;50.666;9.150;2023-05-07T05:04:43;22.77;;;18.27;;
41693;SDS011;27377;50.666;9.150;2023-05-07T05:07:09;22.45;;;18.92;;
41693;SDS011;27377;50.666;9.150;2023-05-07T05:09:34;22.83;;;18.92;;
41693;SDS011;27377;50.666;9.150;2023-05-07T05:12:00;23.58;;;19.08;;
41693;SDS011;27377;50.666;9.150;2023-05-07T05:14:26;23.33;;;19.57;;
41693;SDS011;27377;50.666;9.150;2023-05-07T05:16:52;25.30;;;21.02;;
41693;SDS011;27377;50.666;9.150;2023-05-07T05:19:17;25.87;;;21.13;;
41693;SDS011;27377;50.666;9.150;2023-05-07T05:21:43;24.45;;;21.23;;
41693;SDS011;27377;50.666;9.150;2023-05-07T05:24:11;27.03;;;21.57;;
41693;SDS011;27377;50.666;9.150;2023-05-07T05:26:37;26.52;;;21.63;;
41693;SDS011;27377;50.666;9.150;2023-05-07T05:29:03;30.25;;;23.75;;
41693;SDS011;27377;50.666;9.150;2023-05-07T05:31:28;28.60;;;23.50;;
41693;SDS011;27377;50.666;9.150;2023-05-07T05:33:58;28.83;;;23.30;;
41693;SDS011;27377;50.666;9.150;2023-05-07T05:36:24;26.52;;;22.92;;
41693;SDS011;27377;50.666;9.150;2023-05-07T05:38:49;26.58;;;22.05;;
41693;SDS011;27377;50.666;9.150;2023-05-07T05:41:15;28.50;;;23.37;;
41693;SDS011;27377;50.666;9.150;2023-05-07T05:43:40;28.73;;;23.73;;
41693;SDS011;27377;50.666;9.150;2023-05-07T05:46:06;29.57;;;23.33;;
41693;SDS011;27377;50.666;9.150;2023-05-07T05:48:36;28.13;;;22.98;;
41693;SDS011;27377;50.666;9.150;2023-05-07T05:51:01;29.15;;;24.02;;
41693;SDS011;27377;50.666;9.150;2023-05-07T05:53:27;29.42;;;23.75;;
41693;SDS011;27377;50.666;9.150;2023-05-07T05:55:56;30.33;;;24.40;;
41693;SDS011;27377;50.666;9.150;2023-05-07T05:58:22;30.67;;;24.77;;
41693;SDS011;27377;50.666;9.150;2023-05-07T06:00:47;30.80;;;24.83;;
41693;SDS011;27377;50.666;9.150;2023-05-07T06:03:17;28.35;;;24.05;;
41693;SDS011;27377;50.666;9.150;2023-05-07T06:05:42;29.73;;;25.07;;
41693;SDS011;27377;50.666;9.150;2023-05-07T06:08:08;30.07;;;23.67;;
41693;SDS011;27377;50.666;9.150;2023-05-07T06:10:37;29.92;;;24.23;;
41693;SDS011;27377;50.666;9.150;2023-05-07T06:13:02;31.00;;;24.90;;
41693;SDS011;27377;50.666;9.150;2023-05-07T06:15:28;32.90;;;24.87;;
41693;SDS011;27377;50.666;9.150;2023-05-07T06:17:53;31.07;;;24.80;;
41693;SDS011;27377;50.666;9.150;2023-05-07T06:20:22;30.10;;;24.88;;
41693;SDS011;27377;50.666;9.150;2023-05-07T06:22:48;32.37;;;25.53;;
41693;SDS011;27377;50.666;9.150;2023-05-07T06:25:13;31.60;;;25.17;;
41693;SDS011;27377;50.666;9.150;2023-05-07T06:27:41;30.70;;;23.95;;
41693;SDS011;27377;50.666;9.150;2023-05-07T06:30:07;29.98;;;24.40;;
41693;SDS011;27377;50.666;9.150;2023-05-07T06:32:33;33.78;;;24.95;;
41693;SDS011;27377;50.666;9.150;2023-05-07T06:34:59;29.70;;;23.70;;
41693;SDS011;27377;50.666;9.150;2023-05-07T06:37:25;30.73;;;23.60;;
41693;SDS011;27377;50.666;9.150;2023-05-07T06:39:51;28.93;;;23.83;;
41693;SDS011;27377;50.666;9.150;2023-05-07T06:42:16;28.63;;;23.40;;
41693;SDS011;27377;50.666;9.150;2023-05-07T06:44:42;29.53;;;24.10;;
41693;SDS011;27377;50.666;9.150;2023-05-07T06:47:07;29.73;;;23.43;;
41693;SDS011;27377;50.666;9.150;2023-05-07T06:49:36;29.17;;;22.93;;
41693;SDS011;27377;50.666;9.150;2023-05-07T06:52:02;28.10;;;21.97;;
41693;SDS011;27377;50.666;9.150;2023-05-07T06:54:28;28.37;;;22.57;;
41693;SDS011;27377;50.666;9.150;2023-05-07T06:56:54;30.10;;;24.07;;
41693;SDS011;27377;50.666;9.150;2023-05-07T06:59:20;27.43;;;22.10;;
41693;SDS011;27377;50.666;9.150;2023-05-07T07:01:45;29.80;;;23.17;;
41693;SDS011;27377;50.666;9.150;2023-05-07T07:04:11;28.25;;;22.60;;
41693;SDS011;27377;50.666;9.150;2023-05-07T07:06:36;29.27;;;23.10;;
41693;SDS011;27377;50.666;9.150;2023-05-07T07:09:02;27.98;;;22.33;;
41693;SDS011;27377;50.666;9.150;2023-05-07T07:11:27;28.27;;;22.47;;
41693;SDS011;27377;50.666;9.150;2023-05-07T07:13:53;29.00;;;22.33;;
41693;SDS011;27377;50.666;9.150;2023-05-07T07:16:21;28.95;;;22.08;;
41693;SDS011;27377;50.666;9.150;2023-05-07T07:18:46;26.95;;;21.98;;
41693;SDS011;27377;50.666;9.150;2023-05-07T07:21:12;27.50;;;21.73;;
41693;SDS011;27377;50.666;9.150;2023-05-07T07:23:37;28.90;;;22.17;;
41693;SDS011;27377;50.666;9.150;2023-05-07T07:26:06;27.67;;;21.58;;
41693;SDS011;27377;50.666;9.150;2023-05-07T07:28:31;24.67;;;20.30;;
41693;SDS011;27377;50.666;9.150;2023-05-07T07:30:57;26.20;;;20.73;;
41693;SDS011;27377;50.666;9.150;2023-05-07T07:33:22;24.90;;;20.20;;
41693;SDS011;27377;50.666;9.150;2023-05-07T07:35:51;26.70;;;20.30;;
41693;SDS011;27377;50.666;9.150;2023-05-07T07:38:16;25.00;;;20.67;;
41693;SDS011;27377;50.666;9.150;2023-05-07T07:40:42;25.40;;;20.80;;
41693;SDS011;27377;50.666;9.150;2023-05-07T07:43:09;27.17;;;21.13;;
41693;SDS011;27377;50.666;9.150;2023-05-07T07:45:34;25.80;;;20.20;;
41693;SDS011;27377;50.666;9.150;2023-05-07T07:48:00;26.33;;;21.03;;
41693;SDS011;27377;50.666;9.150;2023-05-07T07:50:26;27.23;;;21.13;;
41693;SDS011;27377;50.666;9.150;2023-05-07T07:52:54;28.93;;;20.80;;
41693;SDS011;27377;50.666;9.150;2023-05-07T07:55:20;26.27;;;19.87;;
41693;SDS011;27377;50.666;9.150;2023-05-07T07:57:50;27.37;;;20.67;;
41693;SDS011;27377;50.666;9.150;2023-05-07T08:00:16;27.15;;;19.92;;
41693;SDS011;27377;50.666;9.150;2023-05-07T08:02:42;24.88;;;19.52;;
41693;SDS011;27377;50.666;9.150;2023-05-07T08:05:08;24.80;;;19.40;;
41693;SDS011;27377;50.666;9.150;2023-05-07T08:07:34;25.13;;;19.20;;
41693;SDS011;27377;50.666;9.150;2023-05-07T08:09:59;24.77;;;19.53;;
41693;SDS011;27377;50.666;9.150;2023-05-07T08:12:25;25.97;;;19.30;;
41693;SDS011;27377;50.666;9.150;2023-05-07T08:14:51;24.50;;;19.13;;
41693;SDS011;27377;50.666;9.150;2023-05-07T08:17:17;23.80;;;18.52;;
41693;SDS011;27377;50.666;9.150;2023-05-07T08:19:43;23.60;;;18.60;;
41693;SDS011;27377;50.666;9.150;2023-05-07T08:22:09;22.07;;;17.67;;
41693;SDS011;27377;50.666;9.150;2023-05-07T08:24:35;23.53;;;17.43;;
41693;SDS011;27377;50.666;9.150;2023-05-07T08:27:02;22.20;;;17.30;;
41693;SDS011;27377;50.666;9.150;2023-05-07T08:29:27;22.57;;;17.83;;
41693;SDS011;27377;50.666;9.150;2023-05-07T08:31:53;21.50;;;17.57;;
41693;SDS011;27377;50.666;9.150;2023-05-07T08:34:19;22.63;;;17.00;;
41693;SDS011;27377;50.666;9.150;2023-05-07T08:36:47;22.35;;;16.85;;
41693;SDS011;27377;50.666;9.150;2023-05-07T08:39:14;22.25;;;16.92;;
41693;SDS011;27377;50.666;9.150;2023-05-07T08:41:43;21.55;;;16.25;;
41693;SDS011;27377;50.666;9.150;2023-05-07T08:44:12;21.83;;;16.77;;
41693;SDS011;27377;50.666;9.150;2023-05-07T08:46:41;22.23;;;16.65;;
41693;SDS011;27377;50.666;9.150;2023-05-07T08:49:11;23.55;;;16.83;;
41693;SDS011;27377;50.666;9.150;2023-05-07T08:51:37;20.37;;;15.83;;
41693;SDS011;27377;50.666;9.150;2023-05-07T08:54:06;21.75;;;15.88;;
41693;SDS011;27377;50.666;9.150;2023-05-07T08:56:32;20.80;;;16.00;;
41693;SDS011;27377;50.666;9.150;2023-05-07T08:59:01;20.70;;;16.07;;
41693;SDS011;27377;50.666;9.150;2023-05-07T09:01:26;20.20;;;15.35;;
41693;SDS011;27377;50.666;9.150;2023-05-07T09:03:52;20.83;;;15.70;;
41693;SDS011;27377;50.666;9.150;2023-05-07T09:06:21;20.45;;;14.90;;
41693;SDS011;27377;50.666;9.150;2023-05-07T09:08:53;21.30;;;16.03;;
41693;SDS011;27377;50.666;9.150;2023-05-07T09:11:20;20.40;;;15.40;;
41693;SDS011;27377;50.666;9.150;2023-05-07T09:13:53;21.58;;;15.52;;
41693;SDS011;27377;50.666;9.150;2023-05-07T09:16:20;21.38;;;15.00;;
41693;SDS011;27377;50.666;9.150;2023-05-07T09:18:47;20.85;;;15.35;;
41693;SDS011;27377;50.666;9.150;2023-05-07T09:21:15;22.60;;;15.43;;
41693;SDS011;27377;50.666;9.150;2023-05-07T09:23:47;20.05;;;15.57;;
41693;SDS011;27377;50.666;9.150;2023-05-07T09:26:15;19.07;;;14.50;;
41693;SDS011;27377;50.666;9.150;2023-05-07T09:28:40;19.80;;;14.80;;
41693;SDS011;27377;50.666;9.150;2023-05-07T09:31:07;20.48;;;14.65;;
41693;SDS011;27377;50.666;9.150;2023-05-07T09:33:33;19.70;;;14.97;;
41693;SDS011;27377;50.666;9.150;2023-05-07T09:36:02;20.90;;;15.10;;
41693;SDS011;27377;50.666;9.150;2023-05-07T09:38:28;21.30;;;14.95;;
41693;SDS011;27377;50.666;9.150;2023-05-07T09:41:02;20.42;;;14.93;;
41693;SDS011;27377;50.666;9.150;2023-05-07T09:43:31;21.45;;;14.63;;
41693;SDS011;27377;50.666;9.150;2023-05-07T09:45:59;21.63;;;14.63;;
41693;SDS011;27377;50.666;9.150;2023-05-07T09:48:28;19.15;;;14.02;;
41693;SDS011;27377;50.666;9.150;2023-05-07T09:50:55;19.52;;;14.45;;
41693;SDS011;27377;50.666;9.150;2023-05-07T09:53:23;19.67;;;14.02;;
41693;SDS011;27377;50.666;9.150;2023-05-07T09:55:50;18.85;;;13.60;;
41693;SDS011;27377;50.666;9.150;2023-05-07T09:58:16;18.38;;;13.40;;
41693;SDS011;27377;50.666;9.150;2023-05-07T10:00:47;18.35;;;13.43;;
41693;SDS011;27377;50.666;9.150;2023-05-07T10:03:14;18.30;;;12.90;;
41693;SDS011;27377;50.666;9.150;2023-05-07T10:05:41;18.30;;;13.23;;
41693;SDS011;27377;50.666;9.150;2023-05-07T10:08:09;18.15;;;13.27;;
41693;SDS011;27377;50.666;9.150;2023-05-07T10:10:36;17.67;;;12.68;;
41693;SDS011;27377;50.666;9.150;2023-05-07T10:13:02;17.77;;;12.50;;
41693;SDS011;27377;50.666;9.150;2023-05-07T10:15:30;17.13;;;12.65;;
41693;SDS011;27377;50.666;9.150;2023-05-07T10:17:56;16.67;;;12.55;;
41693;SDS011;27377;50.666;9.150;2023-05-07T10:20:22;18.43;;;12.63;;
41693;SDS011;27377;50.666;9.150;2023-05-07T10:22:48;17.63;;;12.25;;
41693;SDS011;27377;50.666;9.150;2023-05-07T10:25:23;18.60;;;12.23;;
41693;SDS011;27377;50.666;9.150;2023-05-07T10:27:53;15.85;;;12.35;;
41693;SDS011;27377;50.666;9.150;2023-05-07T10:33:13;20.60;;;13.40;;
41693;SDS011;27377;50.666;9.150;2023-05-07T10:35:42;17.60;;;12.80;;
41693;SDS011;27377;50.666;9.150;2023-05-07T10:38:09;18.52;;;12.15;;
41693;SDS011;27377;50.666;9.150;2023-05-07T10:40:36;16.77;;;12.15;;
41693;SDS011;27377;50.666;9.150;2023-05-07T10:43:03;15.93;;;12.23;;
41693;SDS011;27377;50.666;9.150;2023-05-07T10:45:29;15.73;;;12.25;;
41693;SDS011;27377;50.666;9.150;2023-05-07T10:50:35;16.37;;;12.00;;
41693;SDS011;27377;50.666;9.150;2023-05-07T10:55:43;15.75;;;11.80;;
41693;SDS011;27377;50.666;9.150;2023-05-07T10:58:22;14.80;;;11.73;;
41693;SDS011;27377;50.666;9.150;2023-05-07T11:01:01;15.68;;;11.43;;
41693;SDS011;27377;50.666;9.150;2023-05-07T11:03:27;16.10;;;11.70;;
41693;SDS011;27377;50.666;9.150;2023-05-07T11:11:17;15.15;;;11.13;;
41693;SDS011;27377;50.666;9.150;2023-05-07T11:13:46;14.40;;;10.85;;
41693;SDS011;27377;50.666;9.150;2023-05-07T11:16:22;13.38;;;10.60;;
41693;SDS011;27377;50.666;9.150;2023-05-07T11:18:50;14.10;;;10.70;;
41693;SDS011;27377;50.666;9.150;2023-05-07T11:21:35;13.93;;;10.68;;
41693;SDS011;27377;50.666;9.150;2023-05-07T11:24:09;13.27;;;10.20;;
41693;SDS011;27377;50.666;9.150;2023-05-07T11:26:45;12.45;;;9.73;;
41693;SDS011;27377;50.666;9.150;2023-05-07T11:31:41;14.20;;;10.10;;
41693;SDS011;27377;50.666;9.150;2023-05-07T11:34:07;13.73;;;9.45;;
41693;SDS011;27377;50.666;9.150;2023-05-07T11:36:33;12.70;;;9.20;;
41693;SDS011;27377;50.666;9.150;2023-05-07T11:38:59;12.15;;;9.30;;
41693;SDS011;27377;50.666;9.150;2023-05-07T11:41:37;11.98;;;9.00;;
41693;SDS011;27377;50.666;9.150;2023-05-07T11:44:03;13.02;;;8.73;;
41693;SDS011;27377;50.666;9.150;2023-05-07T11:46:29;11.87;;;8.53;;
41693;SDS011;27377;50.666;9.150;2023-05-07T11:48:55;12.75;;;8.93;;
41693;SDS011;27377;50.666;9.150;2023-05-07T11:51:24;12.43;;;9.20;;
41693;SDS011;27377;50.666;9.150;2023-05-07T11:53:51;12.63;;;9.20;;
41693;SDS011;27377;50.666;9.150;2023-05-07T11:56:18;10.82;;;8.90;;
41693;SDS011;27377;50.666;9.150;2023-05-07T11:58:44;11.48;;;8.93;;
41693;SDS011;27377;50.666;9.150;2023-05-07T12:01:11;13.13;;;9.10;;
41693;SDS011;27377;50.666;9.150;2023-05-07T12:03:41;10.73;;;8.32;;
41693;SDS011;27377;50.666;9.150;2023-05-07T12:06:07;11.98;;;8.90;;
41693;SDS011;27377;50.666;9.150;2023-05-07T12:08:36;13.02;;;8.75;;
41693;SDS011;27377;50.666;9.150;2023-05-07T12:11:09;11.30;;;8.57;;
41693;SDS011;27377;50.666;9.150;2023-05-07T12:13:38;10.57;;;8.40;;
41693;SDS011;27377;50.666;9.150;2023-05-07T12:16:03;13.30;;;8.60;;
41693;SDS011;27377;50.666;9.150;2023-05-07T12:18:30;10.63;;;8.25;;
41693;SDS011;27377;50.666;9.150;2023-05-07T12:20:56;11.45;;;8.43;;
41693;SDS011;27377;50.666;9.150;2023-05-07T12:23:22;12.15;;;8.25;;
41693;SDS011;27377;50.666;9.150;2023-05-07T12:25:48;10.43;;;7.73;;
41693;SDS011;27377;50.666;9.150;2023-05-07T12:28:14;11.37;;;8.27;;
41693;SDS011;27377;50.666;9.150;2023-05-07T12:30:41;10.65;;;7.95;;
41693;SDS011;27377;50.666;9.150;2023-05-07T12:33:08;10.60;;;7.87;;
41693;SDS011;27377;50.666;9.150;2023-05-07T12:35:38;9.25;;;7.45;;
41693;SDS011;27377;50.666;9.150;2023-05-07T12:38:09;10.20;;;7.28;;
41693;SDS011;27377;50.666;9.150;2023-05-07T12:40:41;9.30;;;7.32;;
41693;SDS011;27377;50.666;9.150;2023-05-07T12:43:15;9.27;;;7.45;;
41693;SDS011;27377;50.666;9.150;2023-05-07T12:45:45;9.48;;;7.50;;
41693;SDS011;27377;50.666;9.150;2023-05-07T12:48:13;10.18;;;7.60;;
41693;SDS011;27377;50.666;9.150;2023-05-07T12:50:39;9.32;;;7.38;;
41693;SDS011;27377;50.666;9.150;2023-05-07T12:53:05;10.05;;;7.10;;
41693;SDS011;27377;50.666;9.150;2023-05-07T12:55:39;9.70;;;6.93;;
41693;SDS011;27377;50.666;9.150;2023-05-07T12:58:07;10.88;;;7.00;;
41693;SDS011;27377;50.666;9.150;2023-05-07T13:00:36;8.95;;;7.10;;
41693;SDS011;27377;50.666;9.150;2023-05-07T13:03:03;8.82;;;7.18;;
41693;SDS011;27377;50.666;9.150;2023-05-07T13:05:28;8.70;;;6.90;;
41693;SDS011;27377;50.666;9.150;2023-05-07T13:07:54;10.70;;;7.07;;
41693;SDS011;27377;50.666;9.150;2023-05-07T13:10:21;8.02;;;6.38;;
41693;SDS011;27377;50.666;9.150;2023-05-07T13:12:50;8.32;;;6.50;;
41693;SDS011;27377;50.666;9.150;2023-05-07T13:15:16;9.13;;;6.90;;
41693;SDS011;27377;50.666;9.150;2023-05-07T13:17:43;8.40;;;6.70;;
41693;SDS011;27377;50.666;9.150;2023-05-07T13:20:09;8.15;;;6.55;;
41693;SDS011;27377;50.666;9.150;2023-05-07T13:22:35;10.33;;;7.17;;
41693;SDS011;27377;50.666;9.150;2023-05-07T13:25:01;8.05;;;6.50;;
41693;SDS011;27377;50.666;9.150;2023-05-07T13:27:30;9.57;;;6.80;;
41693;SDS011;27377;50.666;9.150;2023-05-07T13:29:56;11.13;;;6.82;;
41693;SDS011;27377;50.666;9.150;2023-05-07T13:32:22;8.50;;;6.40;;
41693;SDS011;27377;50.666;9.150;2023-05-07T13:34:48;8.32;;;6.22;;
41693;SDS011;27377;50.666;9.150;2023-05-07T13:37:14;9.60;;;6.60;;
41693;SDS011;27377;50.666;9.150;2023-05-07T13:39:39;9.30;;;6.60;;
41693;SDS011;27377;50.666;9.150;2023-05-07T13:42:06;11.57;;;6.30;;
41693;SDS011;27377;50.666;9.150;2023-05-07T13:44:31;8.27;;;6.05;;
41693;SDS011;27377;50.666;9.150;2023-05-07T13:46:58;8.93;;;6.45;;
41693;SDS011;27377;50.666;9.150;2023-05-07T13:49:24;8.03;;;5.83;;
41693;SDS011;27377;50.666;9.150;2023-05-07T13:51:49;7.70;;;6.20;;
41693;SDS011;27377;50.666;9.150;2023-05-07T13:54:15;8.87;;;6.50;;
41693;SDS011;27377;50.666;9.150;2023-05-07T13:56:41;8.38;;;6.30;;
41693;SDS011;27377;50.666;9.150;2023-05-07T13:59:07;8.50;;;6.05;;
41693;SDS011;27377;50.666;9.150;2023-05-07T14:01:33;8.00;;;5.85;;
41693;SDS011;27377;50.666;9.150;2023-05-07T14:03:58;9.53;;;6.33;;
41693;SDS011;27377;50.666;9.150;2023-05-07T14:06:24;7.50;;;6.00;;
41693;SDS011;27377;50.666;9.150;2023-05-07T14:08:50;7.88;;;5.80;;
41693;SDS011;27377;50.666;9.150;2023-05-07T14:11:16;8.02;;;5.90;;
41693;SDS011;27377;50.666;9.150;2023-05-07T14:13:42;7.43;;;5.47;;
41693;SDS011;27377;50.666;9.150;2023-05-07T14:16:08;7.93;;;5.70;;
41693;SDS011;27377;50.666;9.150;2023-05-07T14:18:34;6.40;;;5.30;;
41693;SDS011;27377;50.666;9.150;2023-05-07T14:21:01;7.10;;;5.50;;
41693;SDS011;27377;50.666;9.150;2023-05-07T14:23:28;7.50;;;5.53;;
41693;SDS011;27377;50.666;9.150;2023-05-07T14:25:54;7.40;;;5.50;;
41693;SDS011;27377;50.666;9.150;2023-05-07T14:28:22;8.98;;;5.95;;
41693;SDS011;27377;50.666;9.150;2023-05-07T14:30:48;7.40;;;5.80;;
41693;SDS011;27377;50.666;9.150;2023-05-07T14:33:13;7.90;;;5.73;;
41693;SDS011;27377;50.666;9.150;2023-05-07T14:35:39;7.38;;;5.60;;
41693;SDS011;27377;50.666;9.150;2023-05-07T14:38:04;6.95;;;5.47;;
41693;SDS011;27377;50.666;9.150;2023-05-07T14:40:30;6.47;;;5.55;;
41693;SDS011;27377;50.666;9.150;2023-05-07T14:42:56;6.90;;;5.72;;
41693;SDS011;27377;50.666;9.150;2023-05-07T14:45:22;7.53;;;5.70;;